createdAt,value
2019-03-18T00:00:38.201Z,132.18
2019-03-18T00:03:11.021Z,144.55
2019-03-18T00:05:43.231Z,138.85
2019-03-18T00:08:15.623Z,139.05
2019-03-18T00:10:47.867Z,139.95
2019-03-18T00:13:20.505Z,137.03
2019-03-18T00:15:53.034Z,134.65
2019-03-18T00:18:25.765Z,133.85
2019-03-18T00:20:58.296Z,141.97
2019-03-18T00:23:30.803Z,133.85
2019-03-18T00:26:03.324Z,130.55
2019-03-18T00:28:36.035Z,125.92
2019-03-18T00:31:08.502Z,126.30
2019-03-18T00:33:41.059Z,135.05
2019-03-18T00:36:13.496Z,124.75
2019-03-18T00:38:46.042Z,131.57
2019-03-18T00:41:18.657Z,123.25
2019-03-18T00:43:51.686Z,118.47
2019-03-18T00:46:24.002Z,123.40
2019-03-18T00:48:56.570Z,123.28
2019-03-18T00:51:29.225Z,132.25
2019-03-18T00:54:01.727Z,131.20
2019-03-18T00:56:34.451Z,121.28
2019-03-18T00:59:07.097Z,128.20
2019-03-18T01:01:39.538Z,114.55
2019-03-18T01:04:11.982Z,105.83
2019-03-18T01:06:44.690Z,100.75
2019-03-18T01:09:17.344Z,103.75
2019-03-18T01:11:49.935Z,105.03
2019-03-18T01:14:22.706Z,102.27
2019-03-18T01:16:55.200Z,100.58
2019-03-18T01:25:46.246Z,101.38
2019-03-18T01:28:18.601Z,99.60
2019-03-18T01:30:51.544Z,91.85
2019-03-18T01:33:24.189Z,91.45
2019-03-18T01:36:16.968Z,95.03
2019-03-18T01:38:50.064Z,95.47
2019-03-18T01:41:22.996Z,100.82
2019-03-18T01:43:55.501Z,96.25
2019-03-18T01:46:28.624Z,101.02
2019-03-18T01:49:01.481Z,98.60
2019-03-18T01:51:34.475Z,90.92
2019-03-18T01:54:07.271Z,94.87
2019-03-18T01:56:40.014Z,91.08
2019-03-18T01:59:13.373Z,102.97
2019-03-18T02:01:46.085Z,103.02
2019-03-18T02:04:18.793Z,95.03
2019-03-18T02:06:51.732Z,92.82
2019-03-18T02:09:24.541Z,92.15
2019-03-18T02:11:57.136Z,93.85
2019-03-18T02:14:30.218Z,91.75
2019-03-18T02:17:03.181Z,101.40
2019-03-18T02:19:36.023Z,95.25
2019-03-18T02:22:09.397Z,92.02
2019-03-18T02:25:02.582Z,88.03
2019-03-18T02:27:36.484Z,87.02
2019-03-18T02:30:11.456Z,90.42
2019-03-18T02:32:44.336Z,97.70
2019-03-18T02:35:17.058Z,81.75
2019-03-18T02:38:01.859Z,75.65
2019-03-18T02:40:34.715Z,74.42
2019-03-18T02:43:07.217Z,86.92
2019-03-18T02:45:41.510Z,79.03
2019-03-18T02:48:14.288Z,72.15
2019-03-18T02:50:46.829Z,79.65
2019-03-18T02:53:19.804Z,73.22
2019-03-18T02:55:52.523Z,74.77
2019-03-18T02:58:25.578Z,70.03
2019-03-18T03:00:58.351Z,71.82
2019-03-18T03:03:30.974Z,73.05
2019-03-18T03:06:03.536Z,73.80
2019-03-18T03:08:36.184Z,72.37
2019-03-18T03:11:08.826Z,74.87
2019-03-18T03:13:41.129Z,67.25
2019-03-18T03:16:25.659Z,73.80
2019-03-18T03:18:47.455Z,68.05
2019-03-18T03:21:20.256Z,65.62
2019-03-18T03:23:52.653Z,68.92
2019-03-18T03:26:25.171Z,67.37
2019-03-18T03:28:57.609Z,65.75
2019-03-18T03:31:30.223Z,65.35
2019-03-18T03:34:03.149Z,65.65
2019-03-18T03:36:36.612Z,67.05
2019-03-18T03:39:09.674Z,70.28
2019-03-18T03:41:42.307Z,67.35
2019-03-18T03:44:14.969Z,64.95
2019-03-18T03:46:47.452Z,64.27
2019-03-18T03:49:19.934Z,66.47
2019-03-18T03:51:52.205Z,62.75
2019-03-18T03:54:25.192Z,64.32
2019-03-18T03:56:57.612Z,65.35
2019-03-18T03:59:30.228Z,67.45
2019-03-18T04:02:03.053Z,61.45
2019-03-18T04:04:35.956Z,60.05
2019-03-18T04:07:08.480Z,61.50
2019-03-18T04:09:41.492Z,60.40
2019-03-18T04:12:15.275Z,62.80
2019-03-18T04:14:47.984Z,61.48
2019-03-18T04:17:20.315Z,60.58
2019-03-18T04:19:52.888Z,59.40
2019-03-18T04:22:25.301Z,60.35
2019-03-18T04:24:58.062Z,59.98
2019-03-18T04:27:30.371Z,59.60
2019-03-18T04:30:03.096Z,55.88
2019-03-18T04:32:35.478Z,60.45
2019-03-18T04:35:08.960Z,57.17
2019-03-18T04:37:41.198Z,56.48
2019-03-18T04:40:14.149Z,60.95
2019-03-18T04:42:46.550Z,57.20
2019-03-18T04:45:18.908Z,54.65
2019-03-18T04:47:51.281Z,57.13
2019-03-18T04:50:23.773Z,57.48
2019-03-18T04:52:55.939Z,56.92
2019-03-18T04:55:28.457Z,55.90
2019-03-18T04:58:00.878Z,58.87
2019-03-18T05:00:33.577Z,57.60
2019-03-18T05:03:06.250Z,55.50
2019-03-18T05:05:38.900Z,55.63
2019-03-18T05:08:11.198Z,55.98
2019-03-18T05:10:43.816Z,56.53
2019-03-18T05:13:16.033Z,56.05
2019-03-18T05:15:48.425Z,54.38
2019-03-18T05:18:22.619Z,53.78
2019-03-18T05:20:54.959Z,55.43
2019-03-18T05:23:27.386Z,52.53
2019-03-18T05:26:00.006Z,53.50
2019-03-18T05:28:32.460Z,56.70
2019-03-18T05:31:05.062Z,55.83
2019-03-18T05:33:56.618Z,55.05
2019-03-18T05:36:29.277Z,56.08
2019-03-18T05:39:01.607Z,56.45
2019-03-18T05:41:34.463Z,54.65
2019-03-18T05:44:08.099Z,55.98
2019-03-18T05:46:40.987Z,54.80
2019-03-18T05:49:13.718Z,55.88
2019-03-18T05:51:46.254Z,55.08
2019-03-18T05:54:18.770Z,54.50
2019-03-18T05:56:51.796Z,54.98
2019-03-18T05:59:24.160Z,55.00
2019-03-18T06:01:56.595Z,53.13
2019-03-18T06:04:29.333Z,54.65
2019-03-18T06:07:01.831Z,54.08
2019-03-18T06:09:34.862Z,55.78
2019-03-18T06:12:07.796Z,54.42
2019-03-18T06:14:40.241Z,58.42
2019-03-18T06:17:12.683Z,55.25
2019-03-18T06:19:45.187Z,56.75
2019-03-18T06:22:17.518Z,54.03
2019-03-18T06:24:51.198Z,55.28
2019-03-18T06:27:23.787Z,54.15
2019-03-18T06:29:56.197Z,54.50
2019-03-18T06:32:28.523Z,55.20
2019-03-18T06:35:01.300Z,55.28
2019-03-18T06:37:35.192Z,56.25
2019-03-18T06:40:10.604Z,53.73
2019-03-18T06:42:43.110Z,56.00
2019-03-18T06:45:15.686Z,55.25
2019-03-18T06:47:47.841Z,56.23
2019-03-18T06:50:20.526Z,54.25
2019-03-18T06:52:52.723Z,55.52
2019-03-18T06:55:25.380Z,61.65
2019-03-18T06:57:57.740Z,55.43
2019-03-18T07:00:30.205Z,53.38
2019-03-18T07:03:03.118Z,54.10
2019-03-18T07:05:35.814Z,55.23
2019-03-18T07:08:08.340Z,54.23
2019-03-18T07:10:41.647Z,53.58
2019-03-18T07:13:14.032Z,53.48
2019-03-18T07:15:46.305Z,54.15
2019-03-18T07:18:19.191Z,53.90
2019-03-18T07:20:51.758Z,53.68
2019-03-18T07:23:24.431Z,54.40
2019-03-18T07:25:57.031Z,53.87
2019-03-18T07:28:30.431Z,54.00
2019-03-18T07:31:02.770Z,53.55
2019-03-18T07:33:35.141Z,52.90
2019-03-18T07:36:08.032Z,54.23
2019-03-18T07:38:40.420Z,53.58
2019-03-18T07:41:12.946Z,51.98
2019-03-18T07:43:45.142Z,53.15
2019-03-18T07:46:17.544Z,53.95
2019-03-18T07:48:49.703Z,54.98
2019-03-18T07:51:22.222Z,53.20
2019-03-18T07:53:54.650Z,52.62
2019-03-18T07:56:27.085Z,52.93
2019-03-18T07:59:00.742Z,51.85
2019-03-18T08:01:33.258Z,51.58
2019-03-18T08:04:05.983Z,52.17
2019-03-18T08:06:38.384Z,52.93
2019-03-18T08:09:11.280Z,53.05
2019-03-18T08:11:43.819Z,51.53
2019-03-18T08:14:16.156Z,54.80
2019-03-18T08:16:48.507Z,57.55
2019-03-18T08:19:20.727Z,51.80
2019-03-18T08:21:52.950Z,50.67
2019-03-18T08:24:25.913Z,50.67
2019-03-18T08:26:59.533Z,50.90
2019-03-18T08:29:32.416Z,52.95
2019-03-18T08:32:06.573Z,51.58
2019-03-18T08:34:40.091Z,61.53
2019-03-18T08:37:12.660Z,49.33
2019-03-18T08:39:45.267Z,48.85
2019-03-18T08:42:17.982Z,47.13
2019-03-18T08:44:50.522Z,50.40
2019-03-18T08:47:23.299Z,50.63
2019-03-18T08:49:55.491Z,49.08
2019-03-18T08:52:28.160Z,49.50
2019-03-18T08:55:01.465Z,50.23
2019-03-18T08:57:33.980Z,46.92
2019-03-18T09:00:09.109Z,49.55
2019-03-18T09:02:41.852Z,49.50
2019-03-18T09:05:14.994Z,49.73
2019-03-18T09:07:47.474Z,51.40
2019-03-18T09:10:20.659Z,50.35
2019-03-18T09:12:53.054Z,48.40
2019-03-18T09:15:25.528Z,50.35
2019-03-18T09:17:58.166Z,48.48
2019-03-18T09:20:30.860Z,50.43
2019-03-18T09:23:03.483Z,51.00
2019-03-18T09:25:35.844Z,49.60
2019-03-18T09:28:08.194Z,48.45
2019-03-18T09:30:41.080Z,50.08
2019-03-18T09:33:13.390Z,51.88
2019-03-18T09:35:45.912Z,49.67
2019-03-18T09:38:18.675Z,49.77
2019-03-18T09:40:52.595Z,49.10
2019-03-18T09:43:25.384Z,50.35
2019-03-18T09:45:58.334Z,50.25
2019-03-18T09:48:31.028Z,51.00
2019-03-18T09:51:03.858Z,51.00
2019-03-18T09:53:37.611Z,50.45
2019-03-18T09:56:10.221Z,50.50
2019-03-18T09:58:42.859Z,52.15
2019-03-18T10:01:15.402Z,52.00
2019-03-18T10:03:47.856Z,51.50
2019-03-18T10:06:20.402Z,51.53
2019-03-18T10:08:52.929Z,53.70
2019-03-18T10:11:25.486Z,52.17
2019-03-18T10:13:58.069Z,52.20
2019-03-18T10:16:30.495Z,52.83
2019-03-18T10:19:02.941Z,53.00
2019-03-18T10:21:35.268Z,54.73
2019-03-18T10:24:19.985Z,52.85
2019-03-18T10:26:52.640Z,55.28
2019-03-18T10:29:25.317Z,54.05
2019-03-18T10:31:57.753Z,54.38
2019-03-18T10:34:30.649Z,54.27
2019-03-18T10:37:03.193Z,53.50
2019-03-18T10:39:35.707Z,53.73
2019-03-18T10:42:08.020Z,54.15
2019-03-18T10:44:40.448Z,58.30
2019-03-18T10:47:12.826Z,56.73
2019-03-18T10:49:46.616Z,57.08
2019-03-18T10:52:19.208Z,56.02
2019-03-18T10:54:51.770Z,60.05
2019-03-18T10:57:25.256Z,56.35
2019-03-18T10:59:58.036Z,54.15
2019-03-18T11:02:30.671Z,54.55
2019-03-18T11:05:03.164Z,58.05
2019-03-18T11:07:35.733Z,54.98
2019-03-18T11:10:12.568Z,62.60
2019-03-18T11:12:44.683Z,57.48
2019-03-18T11:15:18.911Z,63.10
2019-03-18T11:17:51.480Z,58.35
2019-03-18T11:20:23.695Z,61.13
2019-03-18T11:22:56.184Z,57.73
2019-03-18T11:25:28.755Z,60.25
2019-03-18T11:28:01.406Z,58.17
2019-03-18T11:30:36.647Z,63.87
2019-03-18T11:33:09.627Z,61.83
2019-03-18T11:35:42.255Z,60.28
2019-03-18T11:38:15.060Z,63.20
2019-03-18T11:40:47.635Z,70.95
2019-03-18T11:43:20.586Z,68.42
2019-03-18T11:45:54.107Z,67.70
2019-03-18T11:48:26.759Z,71.00
2019-03-18T11:50:59.068Z,75.37
2019-03-18T11:53:31.592Z,81.40
2019-03-18T11:56:03.818Z,76.10
2019-03-18T11:58:36.322Z,71.70
2019-03-18T12:01:08.624Z,70.50
2019-03-18T12:03:41.305Z,72.55
2019-03-18T12:06:32.662Z,69.15
2019-03-18T12:09:05.495Z,76.05
2019-03-18T12:11:37.833Z,71.40
2019-03-18T12:14:10.047Z,71.67
2019-03-18T12:16:42.413Z,70.40
2019-03-18T12:19:15.117Z,72.47
2019-03-18T12:21:47.685Z,74.32
2019-03-18T12:24:20.426Z,68.47
2019-03-18T12:26:52.934Z,67.40
2019-03-18T12:29:25.555Z,107.22
2019-03-18T12:31:58.312Z,76.25
2019-03-18T12:34:31.649Z,74.60
2019-03-18T12:37:16.719Z,75.85
2019-03-18T12:39:49.369Z,71.15
2019-03-18T12:42:21.768Z,67.37
2019-03-18T12:44:54.380Z,75.95
2019-03-18T12:47:26.615Z,74.90
2019-03-18T12:49:59.241Z,69.85
2019-03-18T12:52:31.930Z,69.17
2019-03-18T12:55:04.714Z,70.10
2019-03-18T12:57:39.831Z,70.75
2019-03-18T13:00:15.762Z,70.35
2019-03-18T13:02:47.948Z,74.50
2019-03-18T13:05:20.781Z,76.80
2019-03-18T13:07:53.026Z,72.85
2019-03-18T13:10:25.265Z,71.05
2019-03-18T13:12:57.746Z,76.07
2019-03-18T13:15:31.131Z,76.42
2019-03-18T13:18:03.665Z,76.62
2019-03-18T13:20:36.431Z,75.30
2019-03-18T13:23:08.962Z,71.87
2019-03-18T13:25:41.271Z,75.65
2019-03-18T13:28:13.679Z,78.95
2019-03-18T13:30:47.009Z,73.67
2019-03-18T13:33:19.788Z,82.65
2019-03-18T13:35:53.540Z,81.37
2019-03-18T13:38:26.323Z,81.10
2019-03-18T13:40:59.200Z,85.40
2019-03-18T13:43:31.369Z,95.25
2019-03-18T13:46:04.154Z,90.20
2019-03-18T13:48:36.465Z,92.70
2019-03-18T13:51:20.417Z,90.97
2019-03-18T13:53:43.922Z,87.72
2019-03-18T13:56:17.471Z,87.50
2019-03-18T13:58:49.972Z,93.03
2019-03-18T14:01:22.991Z,92.67
2019-03-18T14:03:55.469Z,89.95
2019-03-18T14:06:28.548Z,92.10
2019-03-18T14:09:01.169Z,85.72
2019-03-18T14:11:34.963Z,98.70
2019-03-18T14:14:08.640Z,97.27
2019-03-18T14:16:41.837Z,96.72
2019-03-18T14:19:14.530Z,91.32
2019-03-18T14:21:47.051Z,87.25
2019-03-18T14:24:19.475Z,91.37
2019-03-18T14:26:51.956Z,96.65
2019-03-18T14:29:24.468Z,94.25
2019-03-18T14:31:57.275Z,97.05
2019-03-18T14:34:29.944Z,91.55
2019-03-18T14:37:02.469Z,85.57
2019-03-18T14:39:34.841Z,87.55
2019-03-18T14:42:07.905Z,85.00
2019-03-18T14:44:40.351Z,83.97
2019-03-18T14:47:13.062Z,84.95
2019-03-18T14:49:46.390Z,87.05
2019-03-18T14:52:19.415Z,119.35
2019-03-18T14:54:52.094Z,127.70
2019-03-18T14:57:24.659Z,95.87
2019-03-18T14:59:57.029Z,99.75
2019-03-18T15:02:29.624Z,103.27
2019-03-18T15:05:02.545Z,107.60
2019-03-18T15:07:35.158Z,114.22
2019-03-18T15:10:09.672Z,108.30
2019-03-18T15:12:42.171Z,95.77
2019-03-18T15:15:17.576Z,97.33
2019-03-18T15:17:50.087Z,94.15
2019-03-18T15:20:24.850Z,81.00
2019-03-18T15:22:57.286Z,86.00
2019-03-18T15:25:32.965Z,82.42
2019-03-18T15:28:06.006Z,85.07
2019-03-18T15:30:38.131Z,82.60
2019-03-18T15:33:10.555Z,88.35
2019-03-18T15:35:42.863Z,83.58
2019-03-18T15:38:15.473Z,90.22
2019-03-18T15:40:47.594Z,87.67
2019-03-18T15:43:20.257Z,84.83
2019-03-18T15:45:52.726Z,86.02
2019-03-18T15:48:25.398Z,90.42
2019-03-18T15:50:57.611Z,85.75
2019-03-18T15:53:29.866Z,86.55
2019-03-18T15:56:02.471Z,93.50
2019-03-18T15:58:35.131Z,93.05
2019-03-18T16:01:07.429Z,89.65
2019-03-18T16:03:40.675Z,85.10
2019-03-18T16:06:12.848Z,92.60
2019-03-18T16:08:45.286Z,93.37
2019-03-18T16:11:17.487Z,94.65
2019-03-18T16:13:50.149Z,89.25
2019-03-18T16:16:22.490Z,87.57
2019-03-18T16:18:55.126Z,84.15
2019-03-18T16:21:28.454Z,89.45
2019-03-18T16:24:00.838Z,89.60
2019-03-18T16:26:33.448Z,85.32
2019-03-18T16:29:06.321Z,89.03
2019-03-18T16:31:38.994Z,86.02
2019-03-18T16:34:11.353Z,82.88
2019-03-18T16:36:43.994Z,85.62
2019-03-18T16:39:16.600Z,91.20
2019-03-18T16:41:49.184Z,98.17
2019-03-18T16:44:21.561Z,93.62
2019-03-18T16:46:53.814Z,85.53
2019-03-18T16:49:26.643Z,90.57
2019-03-18T16:51:59.091Z,89.92
2019-03-18T16:54:31.806Z,87.25
2019-03-18T16:57:04.092Z,86.80
2019-03-18T16:59:36.528Z,82.12
2019-03-18T17:02:09.362Z,82.42
2019-03-18T17:04:42.667Z,82.67
2019-03-18T17:07:15.160Z,81.47
2019-03-18T17:09:47.910Z,77.72
2019-03-18T17:12:20.176Z,84.20
2019-03-18T17:14:52.600Z,75.05
2019-03-18T17:17:25.263Z,83.47
2019-03-18T17:19:57.741Z,77.82
2019-03-18T17:22:30.396Z,79.07
2019-03-18T17:25:02.804Z,81.57
2019-03-18T17:27:35.780Z,77.20
2019-03-18T17:30:10.872Z,76.45
2019-03-18T17:32:45.220Z,78.02
2019-03-18T17:35:18.072Z,74.30
2019-03-18T17:37:50.565Z,78.60
2019-03-18T17:40:23.695Z,75.37
2019-03-18T17:42:56.100Z,77.20
2019-03-18T17:45:28.762Z,77.10
2019-03-18T17:48:01.179Z,76.57
2019-03-18T17:50:34.151Z,71.67
2019-03-18T17:53:06.563Z,72.92
2019-03-18T17:55:39.517Z,71.53
2019-03-18T17:58:12.027Z,71.25
2019-03-18T18:00:45.656Z,72.37
2019-03-18T18:03:18.057Z,74.35
2019-03-18T18:05:51.557Z,72.12
2019-03-18T18:08:24.504Z,68.00
2019-03-18T18:10:57.493Z,69.95
2019-03-18T18:13:29.855Z,69.32
2019-03-18T18:16:02.477Z,71.62
2019-03-18T18:18:34.896Z,72.62
2019-03-18T18:21:07.906Z,74.07
2019-03-18T18:23:40.273Z,67.50
2019-03-18T18:26:12.722Z,70.72
2019-03-18T18:28:45.013Z,73.52
2019-03-18T18:31:17.793Z,75.22
2019-03-18T18:33:50.293Z,75.65
2019-03-18T18:36:25.197Z,66.67
2019-03-18T18:38:56.539Z,75.57
2019-03-18T18:41:29.191Z,74.87
2019-03-18T18:44:01.809Z,68.85
2019-03-18T18:46:34.770Z,70.52
2019-03-18T18:49:07.396Z,70.40
2019-03-18T18:51:39.988Z,69.22
2019-03-18T18:54:12.866Z,72.53
2019-03-18T18:56:45.147Z,77.40
2019-03-18T18:59:17.821Z,73.33
2019-03-18T19:01:49.949Z,70.80
2019-03-18T19:04:22.720Z,73.97
2019-03-18T19:06:55.065Z,68.67
2019-03-18T19:09:27.795Z,72.22
2019-03-18T19:12:00.230Z,67.27
2019-03-18T19:14:32.764Z,76.17
2019-03-18T19:17:05.079Z,77.85
2019-03-18T19:19:38.069Z,77.40
2019-03-18T19:22:10.505Z,73.15
2019-03-18T19:24:42.894Z,75.25
2019-03-18T19:27:15.506Z,76.10
2019-03-18T19:29:48.188Z,79.35
2019-03-18T19:32:21.095Z,77.50
2019-03-18T19:34:54.683Z,85.38
2019-03-18T19:37:27.316Z,73.90
2019-03-18T19:40:00.590Z,74.35
2019-03-18T19:42:33.579Z,82.62
2019-03-18T19:45:07.734Z,72.45
2019-03-18T19:47:41.054Z,72.37
2019-03-18T19:50:15.824Z,77.58
2019-03-18T19:52:48.111Z,76.15
2019-03-18T19:55:20.639Z,76.33
2019-03-18T19:57:53.156Z,80.10
2019-03-18T20:00:27.800Z,77.85
2019-03-18T20:03:00.269Z,85.38
2019-03-18T20:05:32.907Z,83.25
2019-03-18T20:08:05.391Z,83.10
2019-03-18T20:10:37.816Z,81.50
2019-03-18T20:13:10.230Z,82.72
2019-03-18T20:15:42.964Z,80.12
2019-03-18T20:18:15.433Z,92.75
2019-03-18T20:20:48.078Z,76.82
2019-03-18T20:23:20.591Z,86.55
2019-03-18T20:25:53.406Z,78.95
2019-03-18T20:28:25.827Z,74.92
2019-03-18T20:30:58.307Z,80.85
2019-03-18T20:33:30.656Z,78.35
2019-03-18T20:36:03.398Z,80.80
2019-03-18T20:38:35.775Z,77.37
2019-03-18T20:41:08.717Z,81.47
2019-03-18T20:43:41.039Z,82.95
2019-03-18T20:46:13.595Z,84.65
2019-03-18T20:48:45.992Z,80.80
2019-03-18T20:51:18.778Z,75.57
2019-03-18T20:53:51.429Z,85.47
2019-03-18T20:56:24.224Z,78.72
2019-03-18T20:58:56.714Z,82.90
2019-03-18T21:01:29.591Z,81.57
2019-03-18T21:04:02.369Z,85.80
2019-03-18T21:06:34.879Z,91.17
2019-03-18T21:09:09.019Z,86.20
2019-03-18T21:11:41.527Z,80.30
2019-03-18T21:14:14.237Z,87.80
2019-03-18T21:16:46.626Z,85.42
2019-03-18T21:19:19.000Z,86.42
2019-03-18T21:21:51.606Z,87.78
2019-03-18T21:24:24.327Z,86.30
2019-03-18T21:26:57.012Z,87.88
2019-03-18T21:29:29.390Z,86.12
2019-03-18T21:32:21.110Z,88.78
2019-03-18T21:34:53.688Z,79.32
2019-03-18T21:37:27.238Z,83.30
2019-03-18T21:39:59.704Z,87.45
2019-03-18T21:42:32.033Z,86.00
2019-03-18T21:45:04.726Z,85.47
2019-03-18T21:47:37.077Z,94.58
2019-03-18T21:50:10.990Z,88.75
2019-03-18T21:52:43.479Z,93.67
2019-03-18T21:55:17.012Z,91.17
2019-03-18T21:57:49.793Z,88.97
2019-03-18T22:00:23.965Z,92.90
2019-03-18T22:02:56.403Z,96.87
2019-03-18T22:05:28.859Z,96.32
2019-03-18T22:08:01.448Z,91.67
2019-03-18T22:10:33.777Z,93.35
2019-03-18T22:13:06.561Z,91.15
2019-03-18T22:15:38.988Z,95.07
2019-03-18T22:18:12.225Z,94.32
2019-03-18T22:20:44.795Z,101.75
2019-03-18T22:23:17.505Z,95.72
2019-03-18T22:25:49.694Z,99.70
2019-03-18T22:28:22.180Z,93.27
2019-03-18T22:30:54.774Z,102.85
2019-03-18T22:33:27.280Z,96.57
2019-03-18T22:35:59.926Z,94.22
2019-03-18T22:38:32.599Z,100.92
2019-03-18T22:41:05.039Z,96.70
2019-03-18T22:43:37.369Z,100.38
2019-03-18T22:46:10.129Z,107.15
2019-03-18T22:48:42.551Z,99.83
2019-03-18T22:51:15.942Z,102.30
2019-03-18T22:53:48.496Z,99.83
2019-03-18T22:56:21.255Z,98.62
2019-03-18T22:58:55.007Z,101.80
2019-03-18T23:01:27.484Z,104.35
2019-03-18T23:04:00.177Z,104.12
2019-03-18T23:06:32.837Z,97.78
2019-03-18T23:09:05.948Z,105.30
2019-03-18T23:11:38.768Z,103.92
2019-03-18T23:14:11.186Z,95.47
2019-03-18T23:16:43.537Z,106.90
2019-03-18T23:19:15.984Z,110.57
2019-03-18T23:21:48.129Z,105.05
2019-03-18T23:24:20.824Z,103.12
2019-03-18T23:26:54.300Z,98.33
2019-03-18T23:29:27.649Z,114.28
2019-03-18T23:32:00.108Z,110.95
2019-03-18T23:34:32.974Z,102.85
2019-03-18T23:37:05.826Z,100.20
2019-03-18T23:39:38.755Z,104.60
2019-03-18T23:42:11.205Z,108.25
2019-03-18T23:44:44.056Z,107.30
2019-03-18T23:47:17.442Z,110.00
2019-03-18T23:49:50.074Z,112.32
2019-03-18T23:52:22.519Z,108.83
2019-03-18T23:54:55.114Z,108.22
2019-03-18T23:57:27.773Z,114.15
